createdAt,value
2023-04-09T00:00:29.556Z,37.45
2023-04-09T00:02:57.419Z,41.80
2023-04-09T00:05:26.732Z,39.38
2023-04-09T00:07:54.730Z,41.38
2023-04-09T00:10:22.624Z,41.35
2023-04-09T00:12:50.532Z,39.95
2023-04-09T00:15:29.967Z,42.30
2023-04-09T00:17:59.441Z,37.85
2023-04-09T00:20:28.929Z,39.20
2023-04-09T00:22:56.750Z,38.45
2023-04-09T00:25:24.743Z,43.45
2023-04-09T00:27:52.610Z,42.42
2023-04-09T00:30:20.480Z,42.35
2023-04-09T00:32:48.493Z,40.55
2023-04-09T00:35:17.410Z,39.70
2023-04-09T00:37:46.917Z,41.38
2023-04-09T00:40:15.438Z,38.78
2023-04-09T00:42:43.444Z,38.88
2023-04-09T00:45:11.955Z,39.25
2023-04-09T00:47:39.961Z,40.33
2023-04-09T00:50:08.699Z,39.45
2023-04-09T00:52:37.076Z,38.80
2023-04-09T00:55:07.354Z,36.42
2023-04-09T01:00:04.067Z,37.70
2023-04-09T01:02:32.076Z,38.60
2023-04-09T01:05:00.705Z,37.80
2023-04-09T01:07:37.594Z,37.92
2023-04-09T01:10:18.144Z,38.88
2023-04-09T01:12:55.656Z,41.55
2023-04-09T01:15:27.899Z,40.00
2023-04-09T01:18:06.208Z,36.95
2023-04-09T01:20:40.529Z,39.22
2023-04-09T01:23:17.395Z,37.92
2023-04-09T01:26:02.392Z,39.33
2023-04-09T01:28:43.760Z,42.15
2023-04-09T01:31:14.491Z,41.85
2023-04-09T01:33:42.956Z,40.85
2023-04-09T01:36:11.465Z,42.50
2023-04-09T01:38:42.435Z,41.22
2023-04-09T01:41:13.052Z,44.47
2023-04-09T01:43:43.532Z,44.08
2023-04-09T01:46:12.345Z,43.00
2023-04-09T01:48:40.492Z,46.08
2023-04-09T01:51:08.507Z,45.50
2023-04-09T01:53:37.094Z,44.22
2023-04-09T01:56:05.657Z,47.28
2023-04-09T01:58:34.330Z,46.45
2023-04-09T02:01:08.230Z,46.15
2023-04-09T02:03:41.006Z,47.75
2023-04-09T02:06:15.537Z,46.45
2023-04-09T02:08:47.431Z,47.67
2023-04-09T02:11:16.420Z,47.63
2023-04-09T02:13:45.382Z,48.10
2023-04-09T02:16:16.694Z,46.10
2023-04-09T02:18:45.169Z,47.25
2023-04-09T02:21:13.782Z,44.90
2023-04-09T02:23:41.849Z,46.58
2023-04-09T02:26:09.714Z,46.67
2023-04-09T02:28:37.646Z,45.40
2023-04-09T02:31:06.165Z,46.10
2023-04-09T02:33:35.824Z,42.92
2023-04-09T02:36:03.685Z,44.03
2023-04-09T02:38:31.979Z,43.53
2023-04-09T02:40:59.931Z,43.83
2023-04-09T02:43:28.259Z,44.10
2023-04-09T02:45:56.177Z,46.05
2023-04-09T02:48:24.133Z,45.25
2023-04-09T02:50:53.407Z,47.55
2023-04-09T02:53:21.531Z,46.33
2023-04-09T02:55:49.495Z,48.35
2023-04-09T02:58:17.459Z,49.85
2023-04-09T03:00:45.474Z,47.85
2023-04-09T03:03:13.500Z,48.63
2023-04-09T03:05:41.595Z,49.33
2023-04-09T03:08:10.867Z,51.55
2023-04-09T03:10:38.784Z,49.03
2023-04-09T03:13:06.748Z,49.40
2023-04-09T03:15:34.660Z,50.22
2023-04-09T03:18:02.727Z,48.65
2023-04-09T03:20:32.292Z,50.25
2023-04-09T03:23:00.212Z,49.30
2023-04-09T03:25:38.323Z,49.95
2023-04-09T03:28:13.012Z,51.45
2023-04-09T03:30:47.728Z,50.25
2023-04-09T03:33:16.412Z,50.88
2023-04-09T03:35:56.240Z,49.95
2023-04-09T03:38:40.073Z,49.92
2023-04-09T03:41:16.004Z,49.25
2023-04-09T03:43:44.108Z,50.20
2023-04-09T03:48:44.660Z,50.47
2023-04-09T03:51:13.708Z,50.55
2023-04-09T03:53:45.882Z,50.35
2023-04-09T03:56:15.516Z,50.40
2023-04-09T03:58:43.979Z,50.35
2023-04-09T04:03:52.859Z,50.13
2023-04-09T04:06:24.249Z,51.92
2023-04-09T04:09:09.494Z,51.15
2023-04-09T04:11:46.092Z,53.92
2023-04-09T04:14:14.639Z,52.63
2023-04-09T04:16:45.809Z,52.42
2023-04-09T04:19:18.018Z,50.70
2023-04-09T04:21:49.320Z,53.35
2023-04-09T04:24:17.703Z,55.92
2023-04-09T04:26:47.046Z,55.00
2023-04-09T04:29:18.499Z,57.85
2023-04-09T04:31:57.705Z,59.23
2023-04-09T04:34:31.680Z,57.10
2023-04-09T04:37:23.124Z,59.67
2023-04-09T04:39:55.770Z,61.40
2023-04-09T04:42:25.688Z,64.72
2023-04-09T04:44:53.958Z,64.20
2023-04-09T04:47:44.023Z,62.25
2023-04-09T04:50:12.152Z,62.33
2023-04-09T04:52:52.693Z,62.22
2023-04-09T04:55:23.097Z,62.08
2023-04-09T04:57:53.556Z,62.28
2023-04-09T05:00:25.399Z,61.22
2023-04-09T05:02:53.720Z,64.32
2023-04-09T05:05:42.018Z,65.78
2023-04-09T05:08:10.589Z,66.95
2023-04-09T05:10:41.525Z,63.85
2023-04-09T05:13:10.940Z,68.85
2023-04-09T05:15:40.787Z,68.77
2023-04-09T05:18:10.561Z,64.72
2023-04-09T05:20:38.879Z,63.55
2023-04-09T05:23:12.543Z,63.67
2023-04-09T05:25:49.733Z,64.95
2023-04-09T05:28:27.158Z,66.38
2023-04-09T05:31:07.431Z,65.38
2023-04-09T05:33:38.293Z,62.53
2023-04-09T05:36:16.440Z,63.50
2023-04-09T05:38:44.544Z,62.92
2023-04-09T05:41:12.512Z,63.72
2023-04-09T05:43:51.023Z,65.82
2023-04-09T05:46:19.207Z,72.78
2023-04-09T05:48:47.942Z,69.95
2023-04-09T05:51:16.550Z,64.85
2023-04-09T05:53:44.693Z,64.00
2023-04-09T05:56:16.559Z,63.28
2023-04-09T05:58:55.591Z,64.07
2023-04-09T06:01:23.796Z,69.15
2023-04-09T06:03:52.863Z,66.38
2023-04-09T06:06:22.674Z,63.78
2023-04-09T06:08:50.531Z,63.65
2023-04-09T06:11:18.346Z,63.45
2023-04-09T06:13:46.199Z,62.88
2023-04-09T06:16:16.100Z,65.55
2023-04-09T06:18:45.997Z,64.75
2023-04-09T06:21:14.532Z,67.97
2023-04-09T06:23:42.424Z,64.60
2023-04-09T06:26:10.622Z,66.30
2023-04-09T06:28:38.540Z,63.13
2023-04-09T06:31:06.437Z,62.10
2023-04-09T06:33:35.663Z,72.47
2023-04-09T06:36:03.607Z,62.78
2023-04-09T06:38:31.429Z,61.67
2023-04-09T06:40:59.313Z,65.13
2023-04-09T06:43:27.174Z,60.53
2023-04-09T06:45:55.051Z,64.20
2023-04-09T06:48:22.932Z,62.45
2023-04-09T06:50:52.106Z,63.85
2023-04-09T06:53:20.128Z,64.80
2023-04-09T06:55:47.978Z,66.68
2023-04-09T06:58:16.479Z,63.20
2023-04-09T07:00:44.412Z,59.55
2023-04-09T07:03:12.618Z,61.88
2023-04-09T07:05:40.527Z,61.75
2023-04-09T07:08:09.749Z,59.65
2023-04-09T07:10:37.543Z,60.25
2023-04-09T07:13:05.439Z,60.47
2023-04-09T07:15:33.423Z,62.25
2023-04-09T07:18:01.365Z,57.80
2023-04-09T07:20:29.253Z,54.00
2023-04-09T07:22:57.275Z,48.80
2023-04-09T07:25:26.616Z,50.88
2023-04-09T07:27:54.714Z,48.10
2023-04-09T07:30:22.938Z,48.55
2023-04-09T07:32:50.966Z,50.25
2023-04-09T07:35:19.560Z,50.10
2023-04-09T07:37:47.396Z,49.65
2023-04-09T07:40:15.340Z,45.63
2023-04-09T07:42:44.570Z,49.13
2023-04-09T07:45:12.470Z,49.80
2023-04-09T07:47:41.354Z,49.33
2023-04-09T07:50:10.567Z,46.65
2023-04-09T07:52:38.667Z,47.70
2023-04-09T07:55:07.374Z,51.10
2023-04-09T07:57:35.324Z,47.83
2023-04-09T08:00:05.130Z,46.28
2023-04-09T08:02:40.996Z,51.05
2023-04-09T08:05:10.229Z,49.08
2023-04-09T08:07:38.107Z,51.95
2023-04-09T08:10:06.921Z,45.65
2023-04-09T08:12:34.954Z,44.28
2023-04-09T08:15:04.656Z,45.67
2023-04-09T08:17:32.521Z,45.00
2023-04-09T08:20:00.517Z,46.40
2023-04-09T08:22:28.376Z,45.10
2023-04-09T08:24:57.362Z,46.85
2023-04-09T08:27:25.499Z,43.10
2023-04-09T08:29:53.336Z,43.67
2023-04-09T08:32:22.774Z,42.42
2023-04-09T08:34:50.697Z,41.97
2023-04-09T08:37:18.530Z,40.95
2023-04-09T08:39:46.324Z,41.67
2023-04-09T08:42:16.099Z,42.35
2023-04-09T08:44:44.749Z,40.45
2023-04-09T08:47:13.039Z,42.03
2023-04-09T08:49:42.284Z,40.05
2023-04-09T08:52:10.126Z,39.95
2023-04-09T08:54:38.412Z,36.67
2023-04-09T08:57:06.812Z,35.78
2023-04-09T08:59:37.011Z,36.47
2023-04-09T09:02:08.755Z,35.72
2023-04-09T09:04:47.484Z,37.53
2023-04-09T09:07:16.166Z,33.85
2023-04-09T09:09:55.105Z,36.22
2023-04-09T09:12:36.525Z,33.97
2023-04-09T09:15:05.554Z,34.10
2023-04-09T09:17:33.493Z,32.00
2023-04-09T09:20:20.555Z,32.13
2023-04-09T09:22:54.936Z,30.48
2023-04-09T09:25:25.462Z,30.85
2023-04-09T09:27:54.848Z,28.52
2023-04-09T09:30:23.869Z,27.87
2023-04-09T09:32:53.984Z,28.45
2023-04-09T09:35:23.557Z,27.52
2023-04-09T09:38:03.862Z,27.13
2023-04-09T09:40:32.049Z,26.95
2023-04-09T09:42:59.980Z,27.63
2023-04-09T09:45:28.524Z,27.63
2023-04-09T09:47:56.929Z,27.73
2023-04-09T09:50:26.448Z,28.63
2023-04-09T09:52:59.835Z,26.63
2023-04-09T09:55:31.647Z,28.73
2023-04-09T09:58:04.544Z,29.92
2023-04-09T10:00:34.108Z,27.48
2023-04-09T10:03:13.144Z,29.63
2023-04-09T10:05:42.929Z,28.63
2023-04-09T10:08:11.546Z,27.58
2023-04-09T10:10:42.038Z,26.15
2023-04-09T10:13:15.494Z,28.52
2023-04-09T10:15:45.160Z,27.02
2023-04-09T10:18:13.099Z,26.80
2023-04-09T10:20:48.915Z,25.92
2023-04-09T10:23:25.638Z,25.98
2023-04-09T10:25:54.525Z,23.45
2023-04-09T10:28:24.403Z,23.08
2023-04-09T10:30:54.887Z,23.52
2023-04-09T10:33:27.834Z,26.63
2023-04-09T10:36:01.535Z,25.85
2023-04-09T10:38:37.182Z,25.40
2023-04-09T10:41:14.949Z,24.35
2023-04-09T10:43:43.137Z,24.70
2023-04-09T10:46:27.165Z,26.08
2023-04-09T10:49:13.959Z,27.75
2023-04-09T10:51:45.112Z,24.63
2023-04-09T10:54:43.674Z,23.65
2023-04-09T10:57:13.669Z,21.98
2023-04-09T10:59:43.132Z,22.10
2023-04-09T11:02:37.341Z,22.20
2023-04-09T11:05:16.306Z,21.95
2023-04-09T11:07:48.987Z,20.58
2023-04-09T11:10:16.894Z,20.73
2023-04-09T11:12:44.831Z,20.55
2023-04-09T11:15:17.740Z,19.67
2023-04-09T11:17:48.701Z,19.92
2023-04-09T11:20:18.374Z,19.58
2023-04-09T11:22:47.734Z,19.42
2023-04-09T11:25:20.791Z,18.00
2023-04-09T11:27:48.881Z,19.50
2023-04-09T11:30:16.769Z,18.55
2023-04-09T11:32:44.854Z,19.20
2023-04-09T11:35:14.351Z,19.90
2023-04-09T11:37:42.930Z,20.83
2023-04-09T11:40:17.957Z,20.75
2023-04-09T11:42:46.897Z,21.75
2023-04-09T11:45:16.249Z,21.45
2023-04-09T11:47:46.460Z,20.27
2023-04-09T11:52:43.450Z,18.40
2023-04-09T11:55:12.169Z,19.95
2023-04-09T11:57:45.936Z,18.58
2023-04-09T12:00:15.546Z,19.23
2023-04-09T12:02:44.510Z,18.85
2023-04-09T12:05:14.188Z,19.67
2023-04-09T12:07:55.473Z,22.45
2023-04-09T12:10:28.495Z,17.77
2023-04-09T12:13:03.232Z,16.27
2023-04-09T12:15:33.821Z,17.35
2023-04-09T12:18:02.379Z,17.67
2023-04-09T12:20:34.867Z,17.40
2023-04-09T12:23:04.553Z,17.88
2023-04-09T12:25:32.818Z,18.42
2023-04-09T12:28:03.188Z,18.92
2023-04-09T12:30:31.617Z,19.52
2023-04-09T12:32:59.785Z,18.42
2023-04-09T12:35:28.298Z,18.73
2023-04-09T12:37:56.325Z,17.02
2023-04-09T12:40:24.341Z,19.70
2023-04-09T12:42:53.006Z,18.30
2023-04-09T12:45:23.253Z,17.02
2023-04-09T12:47:51.166Z,17.83
2023-04-09T12:50:19.111Z,18.38
2023-04-09T12:52:47.290Z,17.80
2023-04-09T12:55:16.146Z,16.38
2023-04-09T12:57:45.804Z,16.27
2023-04-09T13:00:14.764Z,15.88
2023-04-09T13:02:44.167Z,16.38
2023-04-09T13:05:12.292Z,15.93
2023-04-09T13:07:42.342Z,15.27
2023-04-09T13:10:11.412Z,15.32
2023-04-09T13:12:39.356Z,15.07
2023-04-09T13:15:08.330Z,13.77
2023-04-09T13:17:36.118Z,13.90
2023-04-09T13:20:05.995Z,15.65
2023-04-09T13:22:33.857Z,15.05
2023-04-09T13:25:01.701Z,15.30
2023-04-09T13:27:29.532Z,15.27
2023-04-09T13:29:57.404Z,15.38
2023-04-09T13:32:25.293Z,15.15
2023-04-09T13:34:54.512Z,15.98
2023-04-09T13:37:23.689Z,16.00
2023-04-09T13:39:51.650Z,16.25
2023-04-09T13:42:19.458Z,15.48
2023-04-09T13:44:47.348Z,15.98
2023-04-09T13:47:16.947Z,17.08
2023-04-09T13:49:45.090Z,16.08
2023-04-09T13:52:13.012Z,16.15
2023-04-09T13:54:42.201Z,15.93
2023-04-09T13:57:10.360Z,16.70
2023-04-09T13:59:39.061Z,16.75
2023-04-09T14:02:07.093Z,16.33
2023-04-09T14:04:35.157Z,16.48
2023-04-09T14:07:03.087Z,15.43
2023-04-09T14:09:31.140Z,15.80
2023-04-09T14:12:01.542Z,15.73
2023-04-09T14:14:29.360Z,14.45
2023-04-09T14:16:57.134Z,17.40
2023-04-09T14:19:24.995Z,16.63
2023-04-09T14:21:54.154Z,14.93
2023-04-09T14:24:23.146Z,17.20
2023-04-09T14:26:53.354Z,17.88
2023-04-09T14:29:22.915Z,16.15
2023-04-09T14:31:51.728Z,16.67
2023-04-09T14:34:19.586Z,15.32
2023-04-09T14:36:47.638Z,14.70
2023-04-09T14:39:15.630Z,16.02
2023-04-09T14:41:43.387Z,15.63
2023-04-09T14:44:14.580Z,14.85
2023-04-09T14:46:44.598Z,17.52
2023-04-09T14:49:12.512Z,19.65
2023-04-09T14:51:40.304Z,17.00
2023-04-09T14:54:08.032Z,16.73
2023-04-09T14:56:35.974Z,16.10
2023-04-09T14:59:04.338Z,16.70
2023-04-09T15:01:33.379Z,17.33
2023-04-09T15:04:02.751Z,19.17
2023-04-09T15:06:31.331Z,18.83
2023-04-09T15:08:59.158Z,16.60
2023-04-09T15:11:27.913Z,15.20
2023-04-09T15:13:56.230Z,16.52
2023-04-09T15:16:25.796Z,15.23
2023-04-09T15:18:55.849Z,15.40
2023-04-09T15:23:54.325Z,15.45
2023-04-09T15:26:22.147Z,14.15
2023-04-09T15:28:51.202Z,14.85
2023-04-09T15:31:19.173Z,15.00
2023-04-09T15:33:48.237Z,15.57
2023-04-09T15:36:16.021Z,15.43
2023-04-09T15:38:45.189Z,14.27
2023-04-09T15:41:13.148Z,14.50
2023-04-09T15:43:41.002Z,14.82
2023-04-09T15:46:10.727Z,14.48
2023-04-09T15:48:38.993Z,14.73
2023-04-09T15:51:07.218Z,14.07
2023-04-09T15:53:35.188Z,13.63
2023-04-09T15:56:05.492Z,13.55
2023-04-09T16:01:01.455Z,13.43
2023-04-09T16:03:29.288Z,14.38
2023-04-09T16:05:57.064Z,15.55
2023-04-09T16:08:26.601Z,14.57
2023-04-09T16:10:54.341Z,13.93
2023-04-09T16:13:23.549Z,13.48
2023-04-09T16:15:51.817Z,13.10
2023-04-09T16:18:19.789Z,12.55
2023-04-09T16:20:47.540Z,13.38
2023-04-09T16:23:15.398Z,13.40
2023-04-09T16:25:43.167Z,14.18
2023-04-09T16:28:11.091Z,13.40
2023-04-09T16:30:40.612Z,14.43
2023-04-09T16:33:08.752Z,14.70
2023-04-09T16:35:38.675Z,14.48
2023-04-09T16:38:08.367Z,14.48
2023-04-09T16:40:36.428Z,14.07
2023-04-09T16:43:04.455Z,13.93
2023-04-09T16:45:32.738Z,14.32
2023-04-09T16:48:02.146Z,14.05
2023-04-09T16:50:29.964Z,14.15
2023-04-09T16:52:57.730Z,15.35
2023-04-09T16:55:25.701Z,14.10
2023-04-09T16:57:55.931Z,16.58
2023-04-09T17:02:51.967Z,14.95
2023-04-09T17:05:22.443Z,14.52
2023-04-09T17:07:50.231Z,15.25
2023-04-09T17:10:19.146Z,15.93
2023-04-09T17:12:48.337Z,15.88
2023-04-09T17:15:16.283Z,17.10
2023-04-09T17:17:45.710Z,16.52
2023-04-09T17:20:14.144Z,15.43
2023-04-09T17:22:43.490Z,16.73
2023-04-09T17:25:11.931Z,14.73
2023-04-09T17:27:39.699Z,15.85
2023-04-09T17:30:08.648Z,14.73
2023-04-09T17:32:36.758Z,14.13
2023-04-09T17:35:06.984Z,14.10
2023-04-09T17:40:05.348Z,13.82
2023-04-09T17:42:33.224Z,12.68
2023-04-09T17:45:01.212Z,13.82
2023-04-09T17:47:28.947Z,13.80
2023-04-09T17:49:56.825Z,13.40
2023-04-09T17:52:24.566Z,15.55
2023-04-09T17:54:52.367Z,15.18
2023-04-09T17:57:21.524Z,14.68
2023-04-09T17:59:49.311Z,17.10
2023-04-09T18:02:17.461Z,17.83
2023-04-09T18:04:45.541Z,19.70
2023-04-09T18:07:13.612Z,19.33
2023-04-09T18:09:41.896Z,21.70
2023-04-09T18:12:09.697Z,15.93
2023-04-09T18:14:38.912Z,16.77
2023-04-09T18:17:07.004Z,19.08
2023-04-09T18:19:34.774Z,22.73
2023-04-09T18:22:02.568Z,17.60
2023-04-09T18:24:30.327Z,19.35
2023-04-09T18:26:58.154Z,17.67
2023-04-09T18:29:27.460Z,16.33
2023-04-09T18:31:57.453Z,18.03
2023-04-09T18:34:26.275Z,19.38
2023-04-09T18:36:55.433Z,19.02
2023-04-09T18:39:23.617Z,15.95
2023-04-09T18:41:51.539Z,17.27
2023-04-09T18:44:19.353Z,26.95
2023-04-09T18:46:47.237Z,18.52
2023-04-09T18:49:16.378Z,18.33
2023-04-09T18:51:44.233Z,17.08
2023-04-09T18:54:12.156Z,17.42
2023-04-09T18:56:39.948Z,16.92
2023-04-09T18:59:07.719Z,16.73
2023-04-09T19:01:35.593Z,87.03
2023-04-09T19:04:03.637Z,17.80
2023-04-09T19:06:33.189Z,16.15
2023-04-09T19:09:01.149Z,23.60
2023-04-09T19:11:29.285Z,17.33
2023-04-09T19:13:57.181Z,19.45
2023-04-09T19:16:25.081Z,20.95
2023-04-09T19:18:53.126Z,20.98
2023-04-09T19:21:21.117Z,19.42
2023-04-09T19:23:50.219Z,18.88
2023-04-09T19:26:18.214Z,17.92
2023-04-09T19:28:46.831Z,17.15
2023-04-09T19:31:16.033Z,17.17
2023-04-09T19:33:44.090Z,25.60
2023-04-09T19:36:12.951Z,24.25
2023-04-09T19:38:40.910Z,24.00
2023-04-09T19:41:10.437Z,22.40
2023-04-09T19:43:39.408Z,23.35
2023-04-09T19:46:08.570Z,22.48
2023-04-09T19:48:36.484Z,22.42
2023-04-09T19:51:04.721Z,23.80
2023-04-09T19:53:32.822Z,24.95
2023-04-09T19:56:00.804Z,23.55
2023-04-09T19:58:31.957Z,22.77
2023-04-09T20:00:59.894Z,24.42
2023-04-09T20:03:27.773Z,19.73
2023-04-09T20:05:55.735Z,20.52
2023-04-09T20:08:23.603Z,23.17
2023-04-09T20:10:52.720Z,19.35
2023-04-09T20:13:20.559Z,20.25
2023-04-09T20:15:50.160Z,27.10
2023-04-09T20:18:17.949Z,23.80
2023-04-09T20:20:45.859Z,19.80
2023-04-09T20:23:13.829Z,18.73
2023-04-09T20:25:41.626Z,18.05
2023-04-09T20:28:09.926Z,19.10
2023-04-09T20:30:37.818Z,18.05
2023-04-09T20:33:07.326Z,19.13
2023-04-09T20:35:36.119Z,22.02
2023-04-09T20:38:04.119Z,19.80
2023-04-09T20:40:32.398Z,19.30
2023-04-09T20:43:00.478Z,20.23
2023-04-09T20:45:28.338Z,21.92
2023-04-09T20:47:56.236Z,26.30
2023-04-09T20:50:25.868Z,25.08
2023-04-09T20:52:53.720Z,24.35
2023-04-09T20:55:24.340Z,26.80
2023-04-09T20:57:52.773Z,27.30
2023-04-09T21:00:20.840Z,27.05
2023-04-09T21:02:48.916Z,24.73
2023-04-09T21:05:23.564Z,26.60
2023-04-09T21:07:53.573Z,25.48
2023-04-09T21:10:21.450Z,26.90
2023-04-09T21:12:49.417Z,25.67
2023-04-09T21:15:17.430Z,25.48
2023-04-09T21:17:45.546Z,24.80
2023-04-09T21:20:15.034Z,25.42
2023-04-09T21:22:42.919Z,26.58
2023-04-09T21:25:14.580Z,26.65
2023-04-09T21:27:43.189Z,26.05
2023-04-09T21:30:11.514Z,25.02
2023-04-09T21:32:39.376Z,26.00
2023-04-09T21:35:07.774Z,29.77
2023-04-09T21:37:37.464Z,24.55
2023-04-09T21:40:06.193Z,24.77
2023-04-09T21:42:35.501Z,25.00
2023-04-09T21:45:03.727Z,24.73
2023-04-09T21:47:31.959Z,24.80
2023-04-09T21:50:00.112Z,25.60
2023-04-09T21:52:28.099Z,25.58
2023-04-09T21:54:55.948Z,24.63
2023-04-09T21:57:23.818Z,24.23
2023-04-09T21:59:53.080Z,24.75
2023-04-09T22:02:20.961Z,24.98
2023-04-09T22:04:48.917Z,24.50
2023-04-09T22:07:17.034Z,24.30
2023-04-09T22:09:44.831Z,24.27
2023-04-09T22:12:12.681Z,25.25
2023-04-09T22:14:41.759Z,25.50
2023-04-09T22:17:11.119Z,26.35
2023-04-09T22:19:38.998Z,23.85
2023-04-09T22:22:06.764Z,26.33
2023-04-09T22:24:34.597Z,25.58
2023-04-09T22:27:02.676Z,24.75
2023-04-09T22:29:30.600Z,25.98
2023-04-09T22:31:58.453Z,25.35
2023-04-09T22:34:27.743Z,25.98
2023-04-09T22:36:55.510Z,25.25
2023-04-09T22:39:23.367Z,24.25
2023-04-09T22:41:51.157Z,25.73
2023-04-09T22:44:19.066Z,24.23
2023-04-09T22:46:47.034Z,24.17
2023-04-09T22:49:15.006Z,26.27
2023-04-09T22:51:44.263Z,26.10
2023-04-09T22:54:12.150Z,27.60
2023-04-09T22:56:40.388Z,27.65
2023-04-09T22:59:08.273Z,27.80
2023-04-09T23:01:36.739Z,29.50
2023-04-09T23:04:04.813Z,28.05
2023-04-09T23:06:32.752Z,27.48
2023-04-09T23:09:01.946Z,28.45
2023-04-09T23:11:30.519Z,26.23
2023-04-09T23:13:58.390Z,28.25
2023-04-09T23:16:26.301Z,27.25
2023-04-09T23:18:54.538Z,26.60
2023-04-09T23:21:22.644Z,30.15
2023-04-09T23:23:50.511Z,29.33
2023-04-09T23:26:19.712Z,29.35
2023-04-09T23:28:47.525Z,29.17
2023-04-09T23:31:16.063Z,29.67
2023-04-09T23:33:43.996Z,29.80
2023-04-09T23:36:11.929Z,29.63
2023-04-09T23:38:40.446Z,29.08
2023-04-09T23:41:08.594Z,34.58
2023-04-09T23:43:37.735Z,29.67
2023-04-09T23:46:06.183Z,30.10
2023-04-09T23:48:34.025Z,28.70
2023-04-09T23:51:01.820Z,29.83
2023-04-09T23:53:29.706Z,31.58
2023-04-09T23:55:57.575Z,33.30
2023-04-09T23:58:25.535Z,32.25
